Time;durP1;ratioP1;P1;durP2;ratioP2;P2;SDS_P1;SDS_P2;PMS_P1;PMS_P2;Temp;Humidity;BMP_temperature;BMP_pressure;BME280_temperature;BME280_humidity;BME280_pressure;Samples;Min_cycle;Max_cycle;Signal;HPM_P1;HPM_P2
2022/03/31 00:00:15;;;;;;;15.15;13.65;;;;;;;;;;5068100;28;24503;-52
2022/03/31 00:02:40;;;;;;;15.52;14.02;;;;;;;;;;5081880;28;24497;-52
2022/03/31 00:05:06;;;;;;;15.70;14.10;;;;;;;;;;5081123;28;24535;-52
2022/03/31 00:07:31;;;;;;;15.70;14.20;;;;;;;;;;5075534;28;24407;-52
2022/03/31 00:09:56;;;;;;;14.90;13.50;;;;;;;;;;5080166;28;24948;-52
2022/03/31 00:12:21;;;;;;;14.93;13.25;;;;;;;;;;5074693;28;24501;-52
2022/03/31 00:14:47;;;;;;;14.33;12.97;;;;;;;;;;5067910;28;24414;-52
2022/03/31 00:17:12;;;;;;;14.20;12.80;;;;;;;;;;5076736;28;24907;-52
2022/03/31 00:19:37;;;;;;;14.60;13.20;;;;;;;;;;5073990;28;24418;-51
2022/03/31 00:22:02;;;;;;;15.20;13.60;;;;;;;;;;5075413;28;24418;-51
2022/03/31 00:24:27;;;;;;;15.47;13.97;;;;;;;;;;5068468;28;24472;-51
2022/03/31 00:26:52;;;;;;;14.90;13.50;;;;;;;;;;5077510;28;24505;-51
2022/03/31 00:29:18;;;;;;;15.52;13.98;;;;;;;;;;5080809;28;24437;-52
2022/03/31 00:31:43;;;;;;;15.02;13.63;;;;;;;;;;5069430;28;24410;-52
2022/03/31 00:34:08;;;;;;;16.53;15.00;;;;;;;;;;5066950;28;24484;-52
2022/03/31 00:36:33;;;;;;;14.30;12.90;;;;;;;;;;5075785;28;24525;-52
2022/03/31 00:41:43;;;;;;;14.95;13.40;;;;;;;;;;5066978;28;24476;-52
2022/03/31 00:44:08;;;;;;;16.48;14.88;;;;;;;;;;5068394;28;25267;-51
2022/03/31 00:46:34;;;;;;;15.90;14.30;;;;;;;;;;5069518;28;24497;-52
2022/03/31 00:49:01;;;;;;;15.80;14.17;;;;;;;;;;5082575;28;24575;-52
2022/03/31 00:51:26;;;;;;;15.45;14.05;;;;;;;;;;5079488;28;24509;-52
2022/03/31 00:53:51;;;;;;;14.95;13.35;;;;;;;;;;5069866;28;24521;-52
2022/03/31 00:56:18;;;;;;;16.15;14.65;;;;;;;;;;5069753;28;24438;-52
2022/03/31 00:58:43;;;;;;;16.57;15.03;;;;;;;;;;5082584;28;25138;-52
2022/03/31 01:01:09;;;;;;;16.50;14.80;;;;;;;;;;5076423;28;24403;-53
2022/03/31 01:03:35;;;;;;;16.00;14.50;;;;;;;;;;5077400;28;24409;-52
2022/03/31 01:06:00;;;;;;;17.43;15.73;;;;;;;;;;5069177;28;24991;-52
2022/03/31 01:08:25;;;;;;;17.40;15.70;;;;;;;;;;5072414;28;24770;-51
2022/03/31 01:10:52;;;;;;;16.83;15.13;;;;;;;;;;5083450;28;24738;-52
2022/03/31 01:13:18;;;;;;;16.05;14.45;;;;;;;;;;5073190;28;24415;-52
2022/03/31 01:15:43;;;;;;;16.83;15.23;;;;;;;;;;5064629;28;24496;-52
2022/03/31 01:18:08;;;;;;;16.80;15.20;;;;;;;;;;5070966;28;24979;-52
2022/03/31 01:20:33;;;;;;;18.38;16.67;;;;;;;;;;5066124;28;24469;-52
2022/03/31 01:22:59;;;;;;;18.37;16.60;;;;;;;;;;5073501;28;24414;-52
2022/03/31 01:25:24;;;;;;;16.08;14.40;;;;;;;;;;5078899;28;24430;-52
2022/03/31 01:27:49;;;;;;;17.77;16.10;;;;;;;;;;5072234;28;24437;-52
2022/03/31 01:30:19;;;;;;;17.27;15.47;;;;;;;;;;5067785;28;25009;-52
2022/03/31 01:32:45;;;;;;;17.65;15.88;;;;;;;;;;5065567;28;24769;-52
2022/03/31 01:35:11;;;;;;;17.90;16.20;;;;;;;;;;5072276;28;24419;-50
2022/03/31 01:37:36;;;;;;;18.40;16.60;;;;;;;;;;5080623;28;24530;-51
2022/03/31 01:40:02;;;;;;;18.90;17.10;;;;;;;;;;5073451;28;24841;-52
2022/03/31 01:42:28;;;;;;;17.50;15.80;;;;;;;;;;5083551;28;24438;-51
2022/03/31 01:44:53;;;;;;;20.63;18.43;;;;;;;;;;5079598;28;24437;-51
2022/03/31 01:47:19;;;;;;;19.73;17.93;;;;;;;;;;5068118;28;24411;-51
2022/03/31 01:49:44;;;;;;;19.63;17.73;;;;;;;;;;5081250;28;25014;-51
2022/03/31 01:52:09;;;;;;;19.47;17.67;;;;;;;;;;5077331;28;24430;-52
2022/03/31 01:54:35;;;;;;;19.30;17.20;;;;;;;;;;5073856;28;24426;-53
2022/03/31 01:57:01;;;;;;;19.80;17.80;;;;;;;;;;5082539;28;24996;-52
2022/03/31 01:59:33;;;;;;;21.45;19.35;;;;;;;;;;5088026;28;24940;-51
2022/03/31 02:01:58;;;;;;;18.27;16.48;;;;;;;;;;5083099;28;24467;-52
2022/03/31 02:04:23;;;;;;;21.56;19.46;;;;;;;;;;5076229;28;24535;-52
2022/03/31 02:06:48;;;;;;;21.10;18.83;;;;;;;;;;5081716;28;24413;-51
2022/03/31 02:09:13;;;;;;;22.33;20.23;;;;;;;;;;5078031;28;25352;-51
2022/03/31 02:11:40;;;;;;;21.13;18.98;;;;;;;;;;5077440;28;24453;-51
2022/03/31 02:14:05;;;;;;;21.13;19.02;;;;;;;;;;5073237;28;24434;-52
2022/03/31 02:16:30;;;;;;;22.95;20.65;;;;;;;;;;5080035;28;24422;-51
2022/03/31 02:18:55;;;;;;;23.85;21.35;;;;;;;;;;5077725;28;24430;-52
2022/03/31 02:21:20;;;;;;;24.65;21.52;;;;;;;;;;5071809;28;24765;-55
2022/03/31 02:23:47;;;;;;;25.73;22.93;;;;;;;;;;5082458;28;24429;-52
2022/03/31 02:26:12;;;;;;;22.42;20.10;;;;;;;;;;5082803;28;24467;-52
2022/03/31 02:28:39;;;;;;;25.10;22.50;;;;;;;;;;5076576;28;24514;-52
2022/03/31 02:31:04;;;;;;;25.70;23.10;;;;;;;;;;5072095;28;24457;-51
2022/03/31 02:33:29;;;;;;;25.00;22.42;;;;;;;;;;5081849;28;24979;-51
2022/03/31 02:35:54;;;;;;;25.17;22.55;;;;;;;;;;5066697;28;24411;-51
2022/03/31 02:38:19;;;;;;;24.83;22.33;;;;;;;;;;5080781;28;24426;-51
2022/03/31 02:40:44;;;;;;;24.15;21.65;;;;;;;;;;5077701;28;25121;-50
2022/03/31 02:43:11;;;;;;;25.35;22.63;;;;;;;;;;5068486;28;24414;-51
2022/03/31 02:45:36;;;;;;;23.00;20.60;;;;;;;;;;5065838;28;24422;-51
2022/03/31 02:48:01;;;;;;;23.58;21.17;;;;;;;;;;5070691;28;24431;-51
2022/03/31 02:50:26;;;;;;;24.30;21.10;;;;;;;;;;5073402;28;24449;-51
2022/03/31 02:55:55;;;;;;;25.40;21.80;;;;;;;;;;5017742;28;24442;-52
2022/03/31 02:58:20;;;;;;;28.73;23.60;;;;;;;;;;5024407;28;24450;-53
2022/03/31 03:00:46;;;;;;;26.10;22.23;;;;;;;;;;5045397;28;24411;-53
2022/03/31 03:03:11;;;;;;;27.30;22.50;;;;;;;;;;5077832;28;24455;-52
2022/03/31 03:05:36;;;;;;;26.43;22.00;;;;;;;;;;5068243;28;24409;-52
2022/03/31 03:08:02;;;;;;;28.37;22.43;;;;;;;;;;5076824;28;25321;-52
2022/03/31 03:10:27;;;;;;;24.23;21.63;;;;;;;;;;5080700;28;24415;-52
2022/03/31 03:12:52;;;;;;;26.07;22.93;;;;;;;;;;5084811;28;25023;-52
2022/03/31 03:15:17;;;;;;;26.83;23.97;;;;;;;;;;5084101;28;24414;-52
2022/03/31 03:17:44;;;;;;;27.80;22.87;;;;;;;;;;5068332;28;24411;-52
2022/03/31 03:20:13;;;;;;;31.20;23.77;;;;;;;;;;5069403;28;24937;-52
2022/03/31 03:22:40;;;;;;;27.95;23.20;;;;;;;;;;5070016;28;24413;-52
2022/03/31 03:25:05;;;;;;;25.00;22.30;;;;;;;;;;5078209;28;24410;-52
2022/03/31 03:27:30;;;;;;;26.05;23.25;;;;;;;;;;5004118;28;1804786;-52
2022/03/31 03:29:55;;;;;;;24.17;21.55;;;;;;;;;;5076242;28;24430;-52
2022/03/31 03:32:22;;;;;;;28.40;22.83;;;;;;;;;;5074669;28;24987;-52
2022/03/31 03:34:47;;;;;;;27.25;22.42;;;;;;;;;;5073201;28;24426;-52
2022/03/31 03:37:12;;;;;;;29.63;23.30;;;;;;;;;;5079143;28;24423;-52
2022/03/31 03:39:37;;;;;;;29.17;23.83;;;;;;;;;;5067907;28;24533;-52
2022/03/31 03:42:02;;;;;;;27.20;22.80;;;;;;;;;;5076687;28;25010;-51
2022/03/31 03:44:28;;;;;;;26.77;22.97;;;;;;;;;;5073204;28;24549;-52
2022/03/31 03:46:53;;;;;;;31.27;24.70;;;;;;;;;;5072271;28;24829;-51
2022/03/31 03:49:18;;;;;;;33.42;25.60;;;;;;;;;;5081620;28;24437;-51
2022/03/31 03:51:43;;;;;;;32.00;25.53;;;;;;;;;;5079533;28;24796;-51
2022/03/31 03:54:09;;;;;;;28.73;25.63;;;;;;;;;;5085423;28;24506;-51
2022/03/31 03:56:34;;;;;;;32.60;26.00;;;;;;;;;;5076473;28;24421;-51
2022/03/31 03:58:59;;;;;;;30.47;25.50;;;;;;;;;;5068446;28;24963;-51
2022/03/31 04:01:24;;;;;;;31.55;25.55;;;;;;;;;;5077161;28;24452;-51
2022/03/31 04:03:49;;;;;;;34.10;26.07;;;;;;;;;;5074991;28;24411;-51
2022/03/31 04:06:14;;;;;;;31.57;28.10;;;;;;;;;;5070647;28;24414;-51
2022/03/31 04:08:40;;;;;;;31.37;27.97;;;;;;;;;;5081948;28;24932;-51
2022/03/31 04:11:05;;;;;;;33.65;27.80;;;;;;;;;;5067669;28;24439;-51
2022/03/31 04:13:30;;;;;;;33.83;29.33;;;;;;;;;;5073564;28;24809;-51
2022/03/31 04:15:55;;;;;;;33.67;30.07;;;;;;;;;;5075001;28;24457;-51
2022/03/31 04:18:20;;;;;;;31.40;27.73;;;;;;;;;;5072241;28;25164;-51
2022/03/31 04:20:45;;;;;;;31.27;27.85;;;;;;;;;;5074314;28;24742;-53
2022/03/31 04:23:10;;;;;;;33.93;29.97;;;;;;;;;;5071862;28;24983;-51
2022/03/31 04:25:36;;;;;;;33.13;28.00;;;;;;;;;;5078923;28;24402;-52
2022/03/31 04:28:01;;;;;;;30.13;27.02;;;;;;;;;;5074858;28;24442;-52
2022/03/31 04:30:26;;;;;;;31.30;27.13;;;;;;;;;;5080043;28;24437;-52
2022/03/31 04:32:51;;;;;;;30.30;26.63;;;;;;;;;;5078522;28;24410;-52
2022/03/31 04:35:17;;;;;;;32.73;28.40;;;;;;;;;;5079345;28;24876;-53
2022/03/31 04:37:42;;;;;;;34.20;27.90;;;;;;;;;;5080343;28;24486;-52
2022/03/31 04:40:08;;;;;;;29.03;25.80;;;;;;;;;;5068623;28;24406;-51
2022/03/31 04:42:33;;;;;;;30.10;26.70;;;;;;;;;;5070229;28;24414;-52
2022/03/31 04:44:59;;;;;;;28.50;25.60;;;;;;;;;;5065475;28;25046;-51
2022/03/31 04:47:24;;;;;;;31.17;27.50;;;;;;;;;;5072749;28;24793;-52
2022/03/31 04:49:49;;;;;;;30.37;27.17;;;;;;;;;;5082429;28;24411;-51
2022/03/31 04:52:15;;;;;;;32.60;29.02;;;;;;;;;;5077456;28;24418;-51
2022/03/31 04:54:43;;;;;;;34.80;29.43;;;;;;;;;;5061970;28;24402;-52
2022/03/31 04:57:09;;;;;;;33.10;28.50;;;;;;;;;;5066144;28;24964;-52
2022/03/31 04:59:35;;;;;;;33.08;28.00;;;;;;;;;;5072682;28;24410;-52
2022/03/31 05:02:00;;;;;;;31.30;27.88;;;;;;;;;;5072047;28;24411;-52
2022/03/31 05:04:25;;;;;;;31.75;28.05;;;;;;;;;;5075573;28;24414;-52
2022/03/31 05:06:50;;;;;;;31.20;27.80;;;;;;;;;;5081517;28;24509;-52
2022/03/31 05:09:15;;;;;;;35.00;29.50;;;;;;;;;;5074668;28;24418;-52
2022/03/31 05:11:40;;;;;;;34.35;29.33;;;;;;;;;;5063630;28;25431;-51
2022/03/31 05:14:05;;;;;;;31.10;27.60;;;;;;;;;;5073690;28;24505;-53
2022/03/31 05:16:31;;;;;;;32.40;27.08;;;;;;;;;;5069528;28;24575;-52
2022/03/31 05:18:56;;;;;;;31.03;27.70;;;;;;;;;;5073275;28;24931;-51
2022/03/31 05:21:21;;;;;;;31.88;28.40;;;;;;;;;;5072185;28;24431;-52
2022/03/31 05:23:46;;;;;;;30.13;26.83;;;;;;;;;;5072729;28;24471;-52
2022/03/31 05:26:12;;;;;;;29.90;26.77;;;;;;;;;;5069972;28;24418;-52
2022/03/31 05:28:38;;;;;;;30.70;26.40;;;;;;;;;;5084342;28;24438;-52
2022/03/31 05:31:03;;;;;;;31.13;27.93;;;;;;;;;;5085024;28;24785;-52
2022/03/31 05:33:28;;;;;;;34.17;30.47;;;;;;;;;;5081339;28;24967;-52
2022/03/31 05:35:53;;;;;;;32.07;28.60;;;;;;;;;;5084269;28;24418;-52
2022/03/31 05:38:18;;;;;;;32.67;29.10;;;;;;;;;;5084555;28;24398;-52
2022/03/31 05:40:44;;;;;;;29.80;26.65;;;;;;;;;;5084424;28;24521;-52
2022/03/31 05:43:09;;;;;;;29.00;26.00;;;;;;;;;;5082465;28;24421;-53
2022/03/31 05:45:34;;;;;;;29.93;25.73;;;;;;;;;;5081166;28;24429;-52
2022/03/31 05:48:00;;;;;;;28.90;23.80;;;;;;;;;;5072902;28;24458;-52
2022/03/31 05:50:25;;;;;;;27.23;24.00;;;;;;;;;;5072902;28;24426;-52
2022/03/31 05:52:50;;;;;;;27.90;23.57;;;;;;;;;;5066122;28;24964;-53
2022/03/31 05:55:16;;;;;;;30.75;24.48;;;;;;;;;;5069877;28;24431;-52
2022/03/31 05:57:42;;;;;;;25.70;22.95;;;;;;;;;;5063549;28;24430;-52
2022/03/31 06:00:08;;;;;;;25.70;22.93;;;;;;;;;;5077881;28;25153;-53
2022/03/31 06:02:34;;;;;;;26.00;23.20;;;;;;;;;;5069817;28;24422;-53
2022/03/31 06:04:59;;;;;;;25.73;22.92;;;;;;;;;;5078887;28;24471;-53
2022/03/31 06:07:24;;;;;;;27.36;23.42;;;;;;;;;;5077497;28;24425;-52
2022/03/31 06:09:50;;;;;;;28.23;24.40;;;;;;;;;;5082591;28;25010;-51
2022/03/31 06:12:15;;;;;;;27.07;23.20;;;;;;;;;;5067218;28;24426;-52
2022/03/31 06:14:41;;;;;;;26.80;23.40;;;;;;;;;;5069786;28;24808;-51
2022/03/31 06:17:06;;;;;;;31.27;24.67;;;;;;;;;;5085906;28;24402;-51
2022/03/31 06:19:32;;;;;;;28.40;25.30;;;;;;;;;;5085993;28;24478;-53
2022/03/31 06:21:57;;;;;;;32.08;25.33;;;;;;;;;;5089244;28;24418;-52
2022/03/31 06:24:23;;;;;;;29.67;24.42;;;;;;;;;;5081565;28;24506;-52
2022/03/31 06:26:48;;;;;;;30.85;24.90;;;;;;;;;;5070675;28;24446;-52
2022/03/31 06:29:13;;;;;;;30.23;24.97;;;;;;;;;;5074076;28;24525;-52
2022/03/31 06:31:39;;;;;;;27.27;22.60;;;;;;;;;;5077732;28;24968;-51
2022/03/31 06:34:04;;;;;;;28.30;24.83;;;;;;;;;;5089464;28;24437;-51
2022/03/31 06:36:30;;;;;;;26.03;23.23;;;;;;;;;;5080026;28;24458;-51
2022/03/31 06:38:55;;;;;;;26.88;23.80;;;;;;;;;;5068338;28;24433;-51
2022/03/31 06:41:21;;;;;;;24.50;21.83;;;;;;;;;;5081823;28;24904;-52
2022/03/31 06:43:47;;;;;;;27.00;22.53;;;;;;;;;;5079211;28;24459;-52
2022/03/31 06:46:13;;;;;;;26.63;22.88;;;;;;;;;;5086930;28;24828;-52
2022/03/31 06:48:41;;;;;;;25.77;22.17;;;;;;;;;;5088799;28;24410;-52
2022/03/31 06:51:08;;;;;;;27.40;23.17;;;;;;;;;;5089147;28;24801;-52
2022/03/31 06:53:33;;;;;;;27.65;23.65;;;;;;;;;;5071145;28;24924;-52
2022/03/31 06:55:58;;;;;;;26.17;22.50;;;;;;;;;;5088071;28;24418;-51
2022/03/31 06:58:27;;;;;;;27.35;24.00;;;;;;;;;;5074311;28;24516;-51
2022/03/31 07:00:52;;;;;;;29.35;23.25;;;;;;;;;;5068133;28;24386;-52
2022/03/31 07:03:17;;;;;;;26.52;23.65;;;;;;;;;;5068512;28;24456;-52
2022/03/31 07:05:42;;;;;;;26.10;22.03;;;;;;;;;;5068577;28;24398;-51
2022/03/31 07:08:08;;;;;;;27.50;23.40;;;;;;;;;;5079423;28;24421;-52
2022/03/31 07:10:33;;;;;;;30.07;23.83;;;;;;;;;;5088542;28;24937;-52
2022/03/31 07:13:00;;;;;;;29.90;23.80;;;;;;;;;;5088058;28;24386;-52
2022/03/31 07:15:25;;;;;;;28.33;24.77;;;;;;;;;;5084336;28;24986;-52
2022/03/31 07:17:50;;;;;;;27.60;24.03;;;;;;;;;;5067720;28;24473;-52
2022/03/31 07:20:16;;;;;;;26.90;23.07;;;;;;;;;;5068219;28;24774;-52
2022/03/31 07:22:45;;;;;;;26.35;23.60;;;;;;;;;;5068133;28;24414;-52
2022/03/31 07:25:10;;;;;;;28.30;24.27;;;;;;;;;;5068013;28;24415;-51
2022/03/31 07:27:35;;;;;;;26.20;23.40;;;;;;;;;;5085183;28;24480;-52
2022/03/31 07:30:01;;;;;;;28.47;25.40;;;;;;;;;;5080683;28;24530;-52
2022/03/31 07:32:26;;;;;;;26.37;23.10;;;;;;;;;;5085273;28;24396;-52
2022/03/31 07:34:51;;;;;;;27.47;24.57;;;;;;;;;;5085540;28;24410;-52
2022/03/31 07:37:16;;;;;;;26.48;23.35;;;;;;;;;;5085914;28;24430;-53
2022/03/31 07:39:45;;;;;;;26.53;23.30;;;;;;;;;;5087913;28;24382;-52
2022/03/31 07:42:10;;;;;;;26.45;23.27;;;;;;;;;;5087884;28;24455;-52
2022/03/31 07:44:35;;;;;;;26.07;23.27;;;;;;;;;;5087787;28;25008;-53
2022/03/31 07:47:01;;;;;;;24.55;21.27;;;;;;;;;;5069141;28;24430;-52
2022/03/31 07:49:26;;;;;;;26.90;24.00;;;;;;;;;;5077319;28;24418;-52
2022/03/31 07:51:51;;;;;;;25.48;22.77;;;;;;;;;;5071433;28;24407;-52
2022/03/31 07:54:16;;;;;;;27.60;24.65;;;;;;;;;;5066965;28;24390;-52
2022/03/31 07:56:41;;;;;;;28.23;24.08;;;;;;;;;;5081756;28;25026;-52
2022/03/31 07:59:06;;;;;;;27.38;22.70;;;;;;;;;;5086977;28;24382;-52
2022/03/31 08:01:33;;;;;;;28.57;23.63;;;;;;;;;;5077767;28;24423;-52
2022/03/31 08:03:58;;;;;;;27.52;23.95;;;;;;;;;;5064449;28;24746;-52
2022/03/31 08:06:24;;;;;;;26.48;23.67;;;;;;;;;;5077939;28;24437;-52
2022/03/31 08:08:49;;;;;;;28.23;23.37;;;;;;;;;;5074904;28;24398;-53
2022/03/31 08:11:14;;;;;;;28.30;24.37;;;;;;;;;;5087500;28;24504;-52
2022/03/31 08:13:40;;;;;;;27.63;24.70;;;;;;;;;;5077648;28;24564;-52
2022/03/31 08:16:06;;;;;;;27.33;23.00;;;;;;;;;;5095982;28;24516;-52
2022/03/31 08:18:33;;;;;;;27.60;24.63;;;;;;;;;;5088248;28;24487;-52
2022/03/31 08:20:59;;;;;;;25.90;22.55;;;;;;;;;;5091764;28;24570;-52
2022/03/31 08:23:25;;;;;;;29.07;24.37;;;;;;;;;;5089205;28;24548;-52
2022/03/31 08:25:50;;;;;;;25.92;23.00;;;;;;;;;;5073953;28;24406;-52
2022/03/31 08:28:15;;;;;;;29.07;25.77;;;;;;;;;;5066826;28;24488;-52
2022/03/31 08:30:40;;;;;;;28.03;23.10;;;;;;;;;;5066524;28;24414;-52
2022/03/31 08:33:06;;;;;;;28.27;23.57;;;;;;;;;;5067338;28;25293;-52
2022/03/31 08:35:31;;;;;;;26.17;23.20;;;;;;;;;;5064627;28;24390;-52
2022/03/31 08:37:56;;;;;;;26.67;23.73;;;;;;;;;;5059349;28;24785;-52
2022/03/31 08:40:21;;;;;;;26.87;23.13;;;;;;;;;;5063168;28;24386;-52
2022/03/31 08:42:46;;;;;;;26.60;23.80;;;;;;;;;;5065770;28;24486;-52
2022/03/31 08:45:18;;;;;;;30.83;24.05;;;;;;;;;;5086524;28;24382;-52
2022/03/31 08:47:44;;;;;;;26.42;23.13;;;;;;;;;;5086678;28;24828;-51
2022/03/31 08:50:10;;;;;;;26.15;23.30;;;;;;;;;;5086829;28;24464;-51
2022/03/31 08:52:35;;;;;;;23.38;20.88;;;;;;;;;;5086450;28;24928;-53
2022/03/31 08:55:00;;;;;;;26.48;22.10;;;;;;;;;;5084760;28;24505;-55
2022/03/31 08:57:37;;;;;;;25.77;23.08;;;;;;;;;;5086771;28;24426;-52
2022/03/31 09:00:02;;;;;;;27.50;23.85;;;;;;;;;;5086182;28;24458;-52
2022/03/31 09:02:27;;;;;;;29.83;25.77;;;;;;;;;;5086117;28;25029;-53
2022/03/31 09:05:03;;;;;;;28.73;23.65;;;;;;;;;;5084433;28;24761;-52
2022/03/31 09:07:28;;;;;;;25.65;22.92;;;;;;;;;;5085040;28;24412;-52
2022/03/31 09:09:53;;;;;;;26.13;23.27;;;;;;;;;;5079808;28;24418;-52
2022/03/31 09:12:19;;;;;;;26.50;23.83;;;;;;;;;;5084469;28;24487;-52
2022/03/31 09:14:44;;;;;;;26.77;22.48;;;;;;;;;;5084323;28;24464;-52
2022/03/31 09:17:13;;;;;;;28.40;23.77;;;;;;;;;;5085989;28;24498;-52
2022/03/31 09:19:38;;;;;;;26.65;23.85;;;;;;;;;;5086218;28;24474;-52
2022/03/31 09:22:04;;;;;;;24.13;21.53;;;;;;;;;;5085890;28;24448;-52
2022/03/31 09:24:30;;;;;;;26.73;23.75;;;;;;;;;;5086089;28;24391;-53
2022/03/31 09:26:58;;;;;;;26.13;23.30;;;;;;;;;;5084290;28;24418;-52
2022/03/31 09:29:24;;;;;;;25.75;23.05;;;;;;;;;;5086103;28;24982;-53
2022/03/31 09:31:51;;;;;;;24.83;21.70;;;;;;;;;;5086118;28;24394;-53
2022/03/31 09:34:17;;;;;;;25.90;23.10;;;;;;;;;;5082045;28;24419;-53
2022/03/31 09:36:52;;;;;;;25.17;22.47;;;;;;;;;;5064391;28;25256;-53
2022/03/31 09:39:18;;;;;;;25.90;21.60;;;;;;;;;;5066097;28;24406;-52
2022/03/31 09:41:47;;;;;;;27.13;23.40;;;;;;;;;;5069144;28;24433;-53
2022/03/31 09:44:16;;;;;;;26.02;23.23;;;;;;;;;;5085814;28;24504;-52
2022/03/31 09:46:42;;;;;;;25.70;22.85;;;;;;;;;;5068857;28;24418;-52
2022/03/31 09:49:13;;;;;;;25.60;22.80;;;;;;;;;;5064092;28;24403;-52
2022/03/31 09:51:38;;;;;;;25.40;22.80;;;;;;;;;;5065777;28;24387;-53
2022/03/31 09:54:03;;;;;;;25.90;22.57;;;;;;;;;;5065296;28;24402;-52
2022/03/31 09:56:33;;;;;;;29.30;25.00;;;;;;;;;;5070956;28;24419;-52
2022/03/31 09:59:00;;;;;;;27.48;22.48;;;;;;;;;;5069872;28;24487;-52
2022/03/31 10:01:25;;;;;;;27.65;24.65;;;;;;;;;;5069702;28;24501;-52
2022/03/31 10:03:54;;;;;;;27.45;24.65;;;;;;;;;;5069337;28;24915;-52
2022/03/31 10:06:19;;;;;;;26.88;23.17;;;;;;;;;;5073514;28;25368;-52
2022/03/31 10:08:45;;;;;;;25.17;22.48;;;;;;;;;;5089867;28;24402;-52
2022/03/31 10:11:10;;;;;;;25.58;22.98;;;;;;;;;;5090076;28;24451;-52
2022/03/31 10:14:02;;;;;;;24.60;22.00;;;;;;;;;;5089654;28;24975;-52
2022/03/31 10:16:47;;;;;;;25.50;22.35;;;;;;;;;;5082432;28;24698;-51
2022/03/31 10:19:12;;;;;;;27.95;24.45;;;;;;;;;;5067262;28;25011;-52
2022/03/31 10:21:37;;;;;;;24.43;21.93;;;;;;;;;;5081632;28;24424;-52
2022/03/31 10:27:01;;;;;;;27.63;24.73;;;;;;;;;;5087733;28;24385;-52
2022/03/31 10:29:35;;;;;;;23.80;21.30;;;;;;;;;;5088976;28;25177;-52
2022/03/31 10:32:03;;;;;;;26.90;24.10;;;;;;;;;;5074574;28;24410;-52
2022/03/31 10:34:33;;;;;;;24.77;22.17;;;;;;;;;;5070340;28;24533;-53
2022/03/31 10:37:05;;;;;;;25.27;22.77;;;;;;;;;;5088889;28;24571;-52
2022/03/31 10:39:31;;;;;;;25.63;22.83;;;;;;;;;;5089368;28;24791;-52
2022/03/31 10:42:09;;;;;;;25.13;22.42;;;;;;;;;;5089044;28;24421;-53
2022/03/31 10:44:34;;;;;;;25.70;22.90;;;;;;;;;;5086709;28;25178;-53
2022/03/31 10:47:03;;;;;;;25.48;22.67;;;;;;;;;;5089160;28;24401;-53
2022/03/31 10:49:29;;;;;;;27.15;24.25;;;;;;;;;;5088988;28;24747;-53
2022/03/31 10:51:54;;;;;;;25.90;22.87;;;;;;;;;;5088815;28;24978;-53
2022/03/31 10:54:24;;;;;;;28.55;25.30;;;;;;;;;;5089017;28;24405;-53
2022/03/31 10:57:00;;;;;;;27.35;24.23;;;;;;;;;;5088798;28;24472;-53
2022/03/31 10:59:26;;;;;;;26.65;22.80;;;;;;;;;;5088915;28;24521;-53
2022/03/31 11:01:52;;;;;;;25.77;22.98;;;;;;;;;;5088728;28;24908;-53
2022/03/31 11:04:18;;;;;;;26.83;23.67;;;;;;;;;;5088490;28;24418;-52
2022/03/31 11:06:44;;;;;;;27.52;23.65;;;;;;;;;;5087850;28;24958;-52
2022/03/31 11:09:18;;;;;;;26.27;23.58;;;;;;;;;;5088331;28;24440;-53
2022/03/31 11:11:43;;;;;;;26.95;22.90;;;;;;;;;;5088623;28;24413;-53
2022/03/31 11:14:09;;;;;;;27.93;23.97;;;;;;;;;;5088283;28;24403;-53
2022/03/31 11:16:38;;;;;;;25.90;23.00;;;;;;;;;;5088626;28;24940;-52
2022/03/31 11:19:04;;;;;;;26.42;23.55;;;;;;;;;;5088015;28;24401;-53
2022/03/31 11:21:33;;;;;;;26.23;23.23;;;;;;;;;;5088515;28;24398;-52
2022/03/31 11:23:58;;;;;;;26.83;23.80;;;;;;;;;;5077265;28;24421;-53
2022/03/31 11:26:25;;;;;;;27.50;23.90;;;;;;;;;;5059876;28;24904;-53
2022/03/31 11:28:50;;;;;;;25.42;22.50;;;;;;;;;;5060143;28;24992;-53
2022/03/31 11:31:17;;;;;;;25.73;22.98;;;;;;;;;;5057298;28;24422;-53
2022/03/31 11:33:43;;;;;;;25.30;22.55;;;;;;;;;;5058744;28;25170;-51
2022/03/31 11:36:09;;;;;;;25.40;22.70;;;;;;;;;;5059604;28;24821;-51
2022/03/31 11:38:34;;;;;;;25.77;23.08;;;;;;;;;;5057953;28;24982;-52
2022/03/31 11:40:59;;;;;;;24.97;22.27;;;;;;;;;;5059658;28;24504;-51
2022/03/31 11:43:24;;;;;;;27.50;24.50;;;;;;;;;;5058355;28;25002;-51
2022/03/31 11:45:51;;;;;;;26.40;23.50;;;;;;;;;;5059802;28;24981;-51
2022/03/31 11:48:17;;;;;;;25.58;21.95;;;;;;;;;;5058463;28;24425;-51
2022/03/31 11:50:53;;;;;;;25.98;23.17;;;;;;;;;;5059376;28;24529;-51
2022/03/31 11:53:19;;;;;;;25.95;23.15;;;;;;;;;;5057481;28;24814;-50
2022/03/31 11:55:53;;;;;;;24.87;21.87;;;;;;;;;;5057834;28;24429;-51
2022/03/31 11:58:19;;;;;;;27.25;23.95;;;;;;;;;;5059208;28;25187;-52
2022/03/31 12:00:48;;;;;;;26.20;21.70;;;;;;;;;;5059270;28;24505;-53
2022/03/31 12:03:13;;;;;;;28.00;25.00;;;;;;;;;;5057884;28;24411;-52
2022/03/31 12:05:38;;;;;;;25.10;22.40;;;;;;;;;;5058554;28;24487;-52
2022/03/31 12:08:05;;;;;;;24.67;22.07;;;;;;;;;;5056717;28;24707;-52
2022/03/31 12:10:31;;;;;;;25.00;22.20;;;;;;;;;;5055651;28;24757;-52
2022/03/31 12:12:58;;;;;;;30.25;26.20;;;;;;;;;;5057784;28;24998;-52
2022/03/31 12:15:24;;;;;;;26.13;23.35;;;;;;;;;;5058942;28;25058;-52
2022/03/31 12:17:57;;;;;;;27.00;24.08;;;;;;;;;;5058281;28;26314;-52
2022/03/31 12:20:22;;;;;;;26.60;22.97;;;;;;;;;;5058757;28;24458;-52
2022/03/31 12:22:48;;;;;;;26.37;23.47;;;;;;;;;;5057387;28;24509;-52
2022/03/31 12:25:13;;;;;;;26.63;23.67;;;;;;;;;;5059508;28;24447;-52
2022/03/31 12:27:46;;;;;;;26.93;23.60;;;;;;;;;;5058898;28;24431;-52
2022/03/31 12:30:12;;;;;;;29.88;25.55;;;;;;;;;;5058442;28;24622;-52
2022/03/31 12:32:45;;;;;;;27.07;24.20;;;;;;;;;;5058255;28;25120;-52
2022/03/31 12:35:10;;;;;;;29.25;25.05;;;;;;;;;;5057279;28;24758;-52
2022/03/31 12:37:37;;;;;;;27.13;23.97;;;;;;;;;;5059126;28;25314;-52
2022/03/31 12:40:09;;;;;;;29.33;25.47;;;;;;;;;;5057483;28;25501;-52
2022/03/31 12:42:36;;;;;;;30.42;26.80;;;;;;;;;;5057932;28;24425;-52
2022/03/31 12:45:10;;;;;;;29.42;25.13;;;;;;;;;;5058233;28;24501;-52
2022/03/31 12:47:40;;;;;;;27.48;24.50;;;;;;;;;;5058492;28;25015;-53
2022/03/31 12:50:13;;;;;;;29.80;25.88;;;;;;;;;;5059537;28;24524;-52
2022/03/31 12:52:38;;;;;;;30.73;25.50;;;;;;;;;;5056841;28;24635;-52
2022/03/31 12:55:04;;;;;;;28.70;24.73;;;;;;;;;;5053546;28;24790;-52
2022/03/31 12:57:29;;;;;;;28.57;25.03;;;;;;;;;;5056589;28;25215;-52
2022/03/31 12:59:59;;;;;;;28.23;24.53;;;;;;;;;;5058124;28;24419;-52
2022/03/31 13:02:24;;;;;;;28.42;25.33;;;;;;;;;;5057854;28;24438;-52
2022/03/31 13:04:49;;;;;;;31.17;25.58;;;;;;;;;;5058314;28;24426;-52
2022/03/31 13:07:15;;;;;;;32.42;24.38;;;;;;;;;;5057595;28;25133;-52
2022/03/31 13:09:41;;;;;;;27.48;24.20;;;;;;;;;;5058144;28;24523;-52
2022/03/31 13:12:09;;;;;;;28.13;24.73;;;;;;;;;;5056861;28;24449;-53
2022/03/31 13:14:35;;;;;;;29.42;25.25;;;;;;;;;;5056679;28;24465;-52
2022/03/31 13:17:00;;;;;;;29.80;25.35;;;;;;;;;;5057125;28;24577;-53
2022/03/31 13:19:25;;;;;;;31.17;26.95;;;;;;;;;;5056824;28;24799;-52
2022/03/31 13:21:51;;;;;;;31.98;27.10;;;;;;;;;;5057568;28;24516;-52
2022/03/31 13:24:16;;;;;;;28.50;25.30;;;;;;;;;;5057105;28;24438;-52
2022/03/31 13:26:41;;;;;;;31.20;26.43;;;;;;;;;;5058118;28;24435;-52
2022/03/31 13:29:10;;;;;;;32.17;25.30;;;;;;;;;;5058699;28;24452;-52
2022/03/31 13:31:35;;;;;;;29.55;25.25;;;;;;;;;;5062072;28;24429;-52
2022/03/31 13:34:01;;;;;;;31.00;25.98;;;;;;;;;;5058238;28;24796;-52
2022/03/31 13:36:27;;;;;;;31.50;27.20;;;;;;;;;;5059388;28;24419;-52
2022/03/31 13:38:52;;;;;;;29.65;25.48;;;;;;;;;;5061118;28;24429;-52
2022/03/31 13:41:17;;;;;;;35.33;27.33;;;;;;;;;;5060194;28;24774;-52
2022/03/31 13:43:42;;;;;;;30.27;25.03;;;;;;;;;;5060695;28;24422;-51
2022/03/31 13:46:08;;;;;;;32.30;26.63;;;;;;;;;;5061546;28;25239;-51
2022/03/31 13:48:33;;;;;;;29.77;25.23;;;;;;;;;;5060602;28;24428;-52
2022/03/31 13:50:59;;;;;;;29.83;26.27;;;;;;;;;;5061654;28;24534;-52
2022/03/31 13:56:08;;;;;;;31.80;25.88;;;;;;;;;;5061370;28;24631;-52
2022/03/31 14:01:19;;;;;;;32.72;26.33;;;;;;;;;;5060491;28;24780;-52
2022/03/31 14:03:44;;;;;;;31.80;26.57;;;;;;;;;;5060442;28;24561;-52
2022/03/31 14:06:10;;;;;;;29.60;25.63;;;;;;;;;;5060201;28;24817;-51
2022/03/31 14:08:36;;;;;;;30.98;26.15;;;;;;;;;;5060328;28;24964;-51
2022/03/31 14:11:02;;;;;;;32.20;26.63;;;;;;;;;;5060818;28;28901;-51
2022/03/31 14:13:27;;;;;;;34.33;28.20;;;;;;;;;;5060645;28;24426;-51
2022/03/31 14:15:52;;;;;;;33.67;28.58;;;;;;;;;;5060297;28;27064;-51
2022/03/31 14:18:17;;;;;;;33.42;28.83;;;;;;;;;;5060420;28;24499;-51
2022/03/31 14:20:43;;;;;;;35.17;31.40;;;;;;;;;;5061117;28;24448;-52
2022/03/31 14:23:08;;;;;;;32.37;28.97;;;;;;;;;;5061213;28;24598;-52